Terminal Aerodrome Forecast
Issued by NWS

Home | Current Version | Previous Version | Text Only | Print | Product List | Glossary On
Versions: 1 2 3 4 5 6 7 8 9 10 11 12 13
000
FTUS45 KRIW 271100
TAFCPR
TAF
KCPR 271122Z 2712/2812 24009KT P6SM BKN070
     FM271400 24012KT P6SM SCT090
     FM271900 28013G20KT P6SM SKC
     FM280100 23009KT P6SM SKC
     FM281000 22012G18KT P6SM SKC=

USA.gov is the U.S. government's official web portal to all federal, state and local government web resources and services.